sensor_id;sensor_type;location;lat;lon;timestamp;temperature;humidity
73750;SHT30;62058;48.406;-4.514;2023-01-24T00:00:08;6.21;70.86
73750;SHT30;62058;48.406;-4.514;2023-01-24T00:02:35;6.18;70.70
73750;SHT30;62058;48.406;-4.514;2023-01-24T00:05:00;6.22;70.49
73750;SHT30;62058;48.406;-4.514;2023-01-24T00:07:26;6.25;70.87
73750;SHT30;62058;48.406;-4.514;2023-01-24T00:09:51;6.28;70.77
73750;SHT30;62058;48.406;-4.514;2023-01-24T00:12:16;6.33;70.84
73750;SHT30;62058;48.406;-4.514;2023-01-24T00:14:42;6.33;70.58
73750;SHT30;62058;48.406;-4.514;2023-01-24T00:17:07;6.33;70.74
73750;SHT30;62058;48.406;-4.514;2023-01-24T00:19:33;6.34;70.75
73750;SHT30;62058;48.406;-4.514;2023-01-24T00:22:00;6.39;70.66
73750;SHT30;62058;48.406;-4.514;2023-01-24T00:24:26;6.42;70.31
73750;SHT30;62058;48.406;-4.514;2023-01-24T00:26:52;6.42;70.69
73750;SHT30;62058;48.406;-4.514;2023-01-24T00:29:17;6.50;70.68
73750;SHT30;62058;48.406;-4.514;2023-01-24T00:31:42;6.50;70.77
73750;SHT30;62058;48.406;-4.514;2023-01-24T00:34:08;6.54;70.60
73750;SHT30;62058;48.406;-4.514;2023-01-24T00:36:33;6.54;70.49
73750;SHT30;62058;48.406;-4.514;2023-01-24T00:38:59;6.50;70.86
73750;SHT30;62058;48.406;-4.514;2023-01-24T00:41:24;6.56;70.89
73750;SHT30;62058;48.406;-4.514;2023-01-24T00:43:49;6.57;70.86
73750;SHT30;62058;48.406;-4.514;2023-01-24T00:46:15;6.63;70.80
73750;SHT30;62058;48.406;-4.514;2023-01-24T00:48:40;6.63;70.80
73750;SHT30;62058;48.406;-4.514;2023-01-24T00:51:06;6.66;70.96
73750;SHT30;62058;48.406;-4.514;2023-01-24T00:53:31;6.70;70.77
73750;SHT30;62058;48.406;-4.514;2023-01-24T00:55:57;6.70;70.62
73750;SHT30;62058;48.406;-4.514;2023-01-24T00:58:22;6.70;70.75
73750;SHT30;62058;48.406;-4.514;2023-01-24T01:00:48;6.69;70.84
73750;SHT30;62058;48.406;-4.514;2023-01-24T01:03:16;6.72;70.80
73750;SHT30;62058;48.406;-4.514;2023-01-24T01:05:43;6.72;70.72
73750;SHT30;62058;48.406;-4.514;2023-01-24T01:08:09;6.72;70.93
73750;SHT30;62058;48.406;-4.514;2023-01-24T01:10:35;6.70;70.79
73750;SHT30;62058;48.406;-4.514;2023-01-24T01:13:01;6.73;70.85
73750;SHT30;62058;48.406;-4.514;2023-01-24T01:15:26;6.73;70.76
73750;SHT30;62058;48.406;-4.514;2023-01-24T01:17:52;6.72;71.08
73750;SHT30;62058;48.406;-4.514;2023-01-24T01:20:17;6.76;70.48
73750;SHT30;62058;48.406;-4.514;2023-01-24T01:22:43;6.70;71.08
73750;SHT30;62058;48.406;-4.514;2023-01-24T01:25:08;6.74;71.38
73750;SHT30;62058;48.406;-4.514;2023-01-24T01:27:34;6.79;71.38
73750;SHT30;62058;48.406;-4.514;2023-01-24T01:30:00;6.83;71.34
73750;SHT30;62058;48.406;-4.514;2023-01-24T01:32:25;6.87;71.06
73750;SHT30;62058;48.406;-4.514;2023-01-24T01:34:51;6.90;71.41
73750;SHT30;62058;48.406;-4.514;2023-01-24T01:37:16;6.93;71.57
73750;SHT30;62058;48.406;-4.514;2023-01-24T01:39:41;6.94;71.37
73750;SHT30;62058;48.406;-4.514;2023-01-24T01:42:07;6.97;71.70
73750;SHT30;62058;48.406;-4.514;2023-01-24T01:44:32;6.98;71.47
73750;SHT30;62058;48.406;-4.514;2023-01-24T01:47:32;6.97;71.32
73750;SHT30;62058;48.406;-4.514;2023-01-24T01:50:15;7.01;70.99
73750;SHT30;62058;48.406;-4.514;2023-01-24T01:52:44;7.04;71.30
73750;SHT30;62058;48.406;-4.514;2023-01-24T01:55:20;7.05;71.75
73750;SHT30;62058;48.406;-4.514;2023-01-24T01:57:49;7.07;72.44
73750;SHT30;62058;48.406;-4.514;2023-01-24T02:00:19;7.17;72.59
73750;SHT30;62058;48.406;-4.514;2023-01-24T02:02:48;7.22;72.97
73750;SHT30;62058;48.406;-4.514;2023-01-24T02:05:19;7.28;72.95
73750;SHT30;62058;48.406;-4.514;2023-01-24T02:07:57;7.41;73.15
73750;SHT30;62058;48.406;-4.514;2023-01-24T02:10:25;7.42;73.41
73750;SHT30;62058;48.406;-4.514;2023-01-24T02:13:12;7.52;72.97
73750;SHT30;62058;48.406;-4.514;2023-01-24T02:15:37;7.58;73.19
73750;SHT30;62058;48.406;-4.514;2023-01-24T02:18:21;7.62;72.63
73750;SHT30;62058;48.406;-4.514;2023-01-24T02:20:47;7.63;73.50
73750;SHT30;62058;48.406;-4.514;2023-01-24T02:28:22;7.76;73.22
73750;SHT30;62058;48.406;-4.514;2023-01-24T02:30:48;7.79;73.62
73750;SHT30;62058;48.406;-4.514;2023-01-24T02:33:18;7.79;73.81
73750;SHT30;62058;48.406;-4.514;2023-01-24T02:35:45;7.87;73.58
73750;SHT30;62058;48.406;-4.514;2023-01-24T02:38:20;7.87;73.49
73750;SHT30;62058;48.406;-4.514;2023-01-24T02:40:48;7.90;73.63
73750;SHT30;62058;48.406;-4.514;2023-01-24T02:43:16;7.97;73.55
73750;SHT30;62058;48.406;-4.514;2023-01-24T02:45:43;8.00;73.43
73750;SHT30;62058;48.406;-4.514;2023-01-24T02:48:08;8.01;73.23
73750;SHT30;62058;48.406;-4.514;2023-01-24T02:50:34;8.06;73.39
73750;SHT30;62058;48.406;-4.514;2023-01-24T02:53:18;8.04;73.78
73750;SHT30;62058;48.406;-4.514;2023-01-24T02:56:02;8.03;73.58
73750;SHT30;62058;48.406;-4.514;2023-01-24T02:58:46;8.09;73.62
73750;SHT30;62058;48.406;-4.514;2023-01-24T03:01:12;8.09;73.70
73750;SHT30;62058;48.406;-4.514;2023-01-24T03:03:41;8.11;73.40
73750;SHT30;62058;48.406;-4.514;2023-01-24T03:06:07;8.14;73.33
73750;SHT30;62058;48.406;-4.514;2023-01-24T03:08:33;8.19;73.35
73750;SHT30;62058;48.406;-4.514;2023-01-24T03:11:00;8.13;73.55
73750;SHT30;62058;48.406;-4.514;2023-01-24T03:13:26;8.16;73.46
73750;SHT30;62058;48.406;-4.514;2023-01-24T03:16:11;8.20;73.33
73750;SHT30;62058;48.406;-4.514;2023-01-24T03:18:55;8.20;73.39
73750;SHT30;62058;48.406;-4.514;2023-01-24T03:21:39;8.19;73.28
73750;SHT30;62058;48.406;-4.514;2023-01-24T03:24:23;8.21;73.27
73750;SHT30;62058;48.406;-4.514;2023-01-24T03:27:07;8.24;73.29
73750;SHT30;62058;48.406;-4.514;2023-01-24T03:29:51;8.27;73.19
73750;SHT30;62058;48.406;-4.514;2023-01-24T03:32:35;8.30;73.15
73750;SHT30;62058;48.406;-4.514;2023-01-24T03:35:19;8.29;73.24
73750;SHT30;62058;48.406;-4.514;2023-01-24T03:37:45;8.27;73.20
73750;SHT30;62058;48.406;-4.514;2023-01-24T03:40:29;8.26;73.43
73750;SHT30;62058;48.406;-4.514;2023-01-24T03:42:54;8.24;73.43
73750;SHT30;62058;48.406;-4.514;2023-01-24T03:45:22;8.26;73.38
73750;SHT30;62058;48.406;-4.514;2023-01-24T03:47:53;8.26;73.32
73750;SHT30;62058;48.406;-4.514;2023-01-24T03:50:23;8.23;73.46
73750;SHT30;62058;48.406;-4.514;2023-01-24T03:53:07;8.24;73.38
73750;SHT30;62058;48.406;-4.514;2023-01-24T03:55:33;8.21;73.54
73750;SHT30;62058;48.406;-4.514;2023-01-24T03:57:58;8.24;73.50
73750;SHT30;62058;48.406;-4.514;2023-01-24T04:00:24;8.29;73.44
73750;SHT30;62058;48.406;-4.514;2023-01-24T04:02:49;8.29;73.44
73750;SHT30;62058;48.406;-4.514;2023-01-24T04:05:15;8.27;73.41
73750;SHT30;62058;48.406;-4.514;2023-01-24T04:07:41;8.24;73.51
73750;SHT30;62058;48.406;-4.514;2023-01-24T04:10:06;8.26;73.48
73750;SHT30;62058;48.406;-4.514;2023-01-24T04:12:32;8.27;73.38
73750;SHT30;62058;48.406;-4.514;2023-01-24T04:14:57;8.26;73.40
73750;SHT30;62058;48.406;-4.514;2023-01-24T04:17:23;8.26;73.61
73750;SHT30;62058;48.406;-4.514;2023-01-24T04:19:48;8.27;73.48
73750;SHT30;62058;48.406;-4.514;2023-01-24T04:22:15;8.29;73.57
73750;SHT30;62058;48.406;-4.514;2023-01-24T04:24:41;8.26;73.57
73750;SHT30;62058;48.406;-4.514;2023-01-24T04:27:06;8.26;73.52
73750;SHT30;62058;48.406;-4.514;2023-01-24T04:29:32;8.23;73.59
73750;SHT30;62058;48.406;-4.514;2023-01-24T04:31:57;8.20;73.67
73750;SHT30;62058;48.406;-4.514;2023-01-24T04:34:22;8.23;73.59
73750;SHT30;62058;48.406;-4.514;2023-01-24T04:36:48;8.23;73.59
73750;SHT30;62058;48.406;-4.514;2023-01-24T04:39:13;8.24;73.59
73750;SHT30;62058;48.406;-4.514;2023-01-24T04:41:38;8.26;73.62
73750;SHT30;62058;48.406;-4.514;2023-01-24T04:44:04;8.23;73.62
73750;SHT30;62058;48.406;-4.514;2023-01-24T04:46:29;8.23;73.69
73750;SHT30;62058;48.406;-4.514;2023-01-24T04:48:54;8.21;73.72
73750;SHT30;62058;48.406;-4.514;2023-01-24T04:51:20;8.21;73.63
73750;SHT30;62058;48.406;-4.514;2023-01-24T04:53:45;8.21;73.65
73750;SHT30;62058;48.406;-4.514;2023-01-24T04:56:11;8.21;73.65
73750;SHT30;62058;48.406;-4.514;2023-01-24T04:58:36;8.21;73.75
73750;SHT30;62058;48.406;-4.514;2023-01-24T05:01:02;8.20;73.71
73750;SHT30;62058;48.406;-4.514;2023-01-24T07:49:39;7.76;75.37
73750;SHT30;62058;48.406;-4.514;2023-01-24T07:52:05;7.80;75.21
73750;SHT30;62058;48.406;-4.514;2023-01-24T07:54:30;7.83;75.28
73750;SHT30;62058;48.406;-4.514;2023-01-24T07:56:55;7.89;75.09
73750;SHT30;62058;48.406;-4.514;2023-01-24T07:59:21;7.94;75.06
73750;SHT30;62058;48.406;-4.514;2023-01-24T08:01:46;7.94;75.10
73750;SHT30;62058;48.406;-4.514;2023-01-24T08:04:12;7.99;75.09
73750;SHT30;62058;48.406;-4.514;2023-01-24T08:06:38;8.01;74.96
73750;SHT30;62058;48.406;-4.514;2023-01-24T08:09:24;8.06;74.84
73750;SHT30;62058;48.406;-4.514;2023-01-24T08:11:49;8.09;74.74
73750;SHT30;62058;48.406;-4.514;2023-01-24T08:14:14;8.13;74.78
73750;SHT30;62058;48.406;-4.514;2023-01-24T08:16:40;8.17;74.70
73750;SHT30;62058;48.406;-4.514;2023-01-24T08:19:05;8.19;74.76
73750;SHT30;62058;48.406;-4.514;2023-01-24T08:21:30;8.26;74.72
73750;SHT30;62058;48.406;-4.514;2023-01-24T08:23:56;8.24;74.58
73750;SHT30;62058;48.406;-4.514;2023-01-24T08:26:21;8.31;74.69
73750;SHT30;62058;48.406;-4.514;2023-01-24T08:28:46;8.38;74.56
73750;SHT30;62058;48.406;-4.514;2023-01-24T08:31:12;8.42;74.49
73750;SHT30;62058;48.406;-4.514;2023-01-24T08:33:37;8.47;74.25
73750;SHT30;62058;48.406;-4.514;2023-01-24T08:36:04;8.52;73.89
73750;SHT30;62058;48.406;-4.514;2023-01-24T08:38:29;8.55;74.12
73750;SHT30;62058;48.406;-4.514;2023-01-24T08:40:55;8.62;74.16
73750;SHT30;62058;48.406;-4.514;2023-01-24T08:43:20;8.67;73.96
73750;SHT30;62058;48.406;-4.514;2023-01-24T08:45:45;8.71;74.02
73750;SHT30;62058;48.406;-4.514;2023-01-24T08:48:11;8.76;73.79
73750;SHT30;62058;48.406;-4.514;2023-01-24T08:50:36;8.92;73.95
73750;SHT30;62058;48.406;-4.514;2023-01-24T08:53:02;8.98;73.72
73750;SHT30;62058;48.406;-4.514;2023-01-24T08:55:27;9.05;73.71
73750;SHT30;62058;48.406;-4.514;2023-01-24T08:57:59;9.09;73.28
73750;SHT30;62058;48.406;-4.514;2023-01-24T09:00:25;9.16;73.67
73750;SHT30;62058;48.406;-4.514;2023-01-24T09:19:48;9.61;72.71
73750;SHT30;62058;48.406;-4.514;2023-01-24T09:22:14;9.71;72.77
73750;SHT30;62058;48.406;-4.514;2023-01-24T09:24:39;9.81;72.78
73750;SHT30;62058;48.406;-4.514;2023-01-24T09:27:05;9.88;72.49
73750;SHT30;62058;48.406;-4.514;2023-01-24T09:29:30;9.97;72.12
73750;SHT30;62058;48.406;-4.514;2023-01-24T09:31:55;10.02;71.95
73750;SHT30;62058;48.406;-4.514;2023-01-24T09:34:21;10.08;71.19
73750;SHT30;62058;48.406;-4.514;2023-01-24T09:36:47;10.14;71.85
73750;SHT30;62058;48.406;-4.514;2023-01-24T09:39:14;10.02;71.38
73750;SHT30;62058;48.406;-4.514;2023-01-24T09:47:47;10.15;70.92
73750;SHT30;62058;48.406;-4.514;2023-01-24T09:50:28;10.15;70.21
73750;SHT30;62058;48.406;-4.514;2023-01-24T09:52:56;10.27;71.12
73750;SHT30;62058;48.406;-4.514;2023-01-24T09:55:30;10.27;69.51
73750;SHT30;62058;48.406;-4.514;2023-01-24T09:58:29;10.31;70.67
73750;SHT30;62058;48.406;-4.514;2023-01-24T10:01:02;10.37;70.15
73750;SHT30;62058;48.406;-4.514;2023-01-24T10:03:31;10.51;70.18
73750;SHT30;62058;48.406;-4.514;2023-01-24T10:06:01;10.55;70.24
73750;SHT30;62058;48.406;-4.514;2023-01-24T10:08:34;10.58;68.85
73750;SHT30;62058;48.406;-4.514;2023-01-24T10:29:24;11.09;68.75
73750;SHT30;62058;48.406;-4.514;2023-01-24T10:31:56;11.13;69.59
73750;SHT30;62058;48.406;-4.514;2023-01-24T10:34:26;11.16;68.65
73750;SHT30;62058;48.406;-4.514;2023-01-24T10:36:59;11.22;69.66
73750;SHT30;62058;48.406;-4.514;2023-01-24T10:39:25;11.26;69.00
73750;SHT30;62058;48.406;-4.514;2023-01-24T10:41:53;11.28;69.46
73750;SHT30;62058;48.406;-4.514;2023-01-24T11:02:32;11.74;66.90
73750;SHT30;62058;48.406;-4.514;2023-01-24T11:05:09;11.82;66.88
73750;SHT30;62058;48.406;-4.514;2023-01-24T11:07:36;11.85;66.74
73750;SHT30;62058;48.406;-4.514;2023-01-24T11:10:18;11.88;67.81
73750;SHT30;62058;48.406;-4.514;2023-01-24T11:20:43;11.91;67.45
73750;SHT30;62058;48.406;-4.514;2023-01-24T11:23:16;11.91;66.91
73750;SHT30;62058;48.406;-4.514;2023-01-24T11:25:59;11.78;66.93
73750;SHT30;62058;48.406;-4.514;2023-01-24T11:28:28;11.70;66.81
73750;SHT30;62058;48.406;-4.514;2023-01-24T11:35:59;11.71;67.09
73750;SHT30;62058;48.406;-4.514;2023-01-24T11:38:32;11.75;66.68
73750;SHT30;62058;48.406;-4.514;2023-01-24T12:05:11;11.71;64.87
73750;SHT30;62058;48.406;-4.514;2023-01-24T12:10:38;12.05;64.77
73750;SHT30;62058;48.406;-4.514;2023-01-24T12:26:30;11.94;64.40
73750;SHT30;62058;48.406;-4.514;2023-01-24T13:32:26;13.82;59.67
73750;SHT30;62058;48.406;-4.514;2023-01-24T13:34:56;14.01;59.70
73750;SHT30;62058;48.406;-4.514;2023-01-24T13:37:28;13.87;58.90
